Cornish, Maine
Current Conditions -  °F | °C
As of 6:54 AM on Thursday 23 Oct 2014 (Local Time) from KIZG Reporting Station
Light Rain Light Rain  
Wind Chill: 43°   Ceiling: 1600
Heat Index: 47°   Visibility: 10mi
Dew Point: 45°   Wind: 9mph
Humidity: 93%   Direction: 360°N
Pressure: 29.88"   Gusts: 20mph
Location:  43.8°N, 70.8°W
Report Text: KIZG 231054Z AUTO 36008G17KT 10SM -RA OVC016 08/07 A2988 RMK AO2 SLP122 P0003 T00830072
Loading
Personal Weather Stations






























Interactive Weather Map
Tropical Storm Tracking
New forecast layout! Learn more

10-Day Weather Forecast

Advertisements
Track Severe Weather on mobile